KVNY/VNY METAR and TAF weather

Enter ICAO airport designator
Station Type Date Time Source
KVNY METAR 2019/11/15 04:51 UTC NOAA

KVNY 150451Z 00000KT 10SM CLR 19/11 A3011 RMK AO2 SLP188 T01890106


Station Type Date Time Source
KVNY Decoded METAR 2019/11/15 04:51 UTC NOAA

VAN NUYS AIRPORT, CA, United States (KVNY) 34-13N 118-29W 245M
Nov 14, 2019 - 11:51 PM EST / 2019.11.15 0451 UTC
Wind: Calm:0
Visibility: 10 mile(s):0
Sky conditions: clear
Temperature: 66.0 F (18.9 C)
Dew Point: 51.1 F (10.6 C)
Relative Humidity: 58%
Pressure (altimeter): 30.11 in. Hg (1019 hPa)
ob: KVNY 150451Z 00000KT 10SM CLR 19/11 A3011 RMK AO2 SLP188 T01890106
cycle: 5

Station Type Date Time Source
KVNY TAF 2019/11/14 21:21 UTC NOAA

TAF
AMD KVNY 142119Z 1421/1518 09005KT 4SM HZ SCT200
FM150200 VRB03KT P6SM BKN200
FM150900 VRB03KT 3SM BR OVC010

Example: see airport list